sensor_id;sensor_type;location;lat;lon;timestamp;P1;durP1;ratioP1;P2;durP2;ratioP2
43048;SDS011;28673;44.412;11.918;2024-03-23T00:53:23;22.75;;;12.50;;
43048;SDS011;28673;44.412;11.918;2024-03-23T00:55:49;20.42;;;12.45;;
43048;SDS011;28673;44.412;11.918;2024-03-23T00:58:15;24.27;;;11.73;;
43048;SDS011;28673;44.412;11.918;2024-03-23T01:00:41;23.67;;;11.43;;
43048;SDS011;28673;44.412;11.918;2024-03-23T01:03:07;19.95;;;12.48;;
43048;SDS011;28673;44.412;11.918;2024-03-23T01:05:33;17.50;;;10.95;;
43048;SDS011;28673;44.412;11.918;2024-03-23T01:07:58;20.85;;;12.23;;
43048;SDS011;28673;44.412;11.918;2024-03-23T01:10:24;18.25;;;11.52;;
43048;SDS011;28673;44.412;11.918;2024-03-23T01:12:50;22.00;;;11.75;;
43048;SDS011;28673;44.412;11.918;2024-03-23T01:15:16;22.40;;;11.77;;
43048;SDS011;28673;44.412;11.918;2024-03-23T01:17:41;22.70;;;12.63;;
43048;SDS011;28673;44.412;11.918;2024-03-23T01:20:07;24.75;;;12.65;;
43048;SDS011;28673;44.412;11.918;2024-03-23T01:22:33;20.17;;;11.43;;
43048;SDS011;28673;44.412;11.918;2024-03-23T01:24:59;18.35;;;10.43;;
43048;SDS011;28673;44.412;11.918;2024-03-23T01:27:25;20.63;;;10.98;;
43048;SDS011;28673;44.412;11.918;2024-03-23T01:29:51;18.50;;;11.32;;
43048;SDS011;28673;44.412;11.918;2024-03-23T01:32:17;18.38;;;11.30;;
43048;SDS011;28673;44.412;11.918;2024-03-23T01:34:44;21.92;;;12.48;;
43048;SDS011;28673;44.412;11.918;2024-03-23T01:37:10;21.50;;;11.88;;
43048;SDS011;28673;44.412;11.918;2024-03-23T01:39:36;23.20;;;12.60;;
43048;SDS011;28673;44.412;11.918;2024-03-23T01:42:01;17.73;;;11.75;;
43048;SDS011;28673;44.412;11.918;2024-03-23T01:44:27;19.27;;;11.60;;
43048;SDS011;28673;44.412;11.918;2024-03-23T01:46:53;20.52;;;12.85;;
43048;SDS011;28673;44.412;11.918;2024-03-23T01:49:19;21.90;;;11.40;;
43048;SDS011;28673;44.412;11.918;2024-03-23T01:51:45;24.48;;;11.82;;
43048;SDS011;28673;44.412;11.918;2024-03-23T01:54:11;21.00;;;11.75;;
43048;SDS011;28673;44.412;11.918;2024-03-23T01:56:37;20.17;;;12.32;;
43048;SDS011;28673;44.412;11.918;2024-03-23T01:59:04;22.08;;;11.32;;
43048;SDS011;28673;44.412;11.918;2024-03-23T02:01:30;19.48;;;12.48;;
43048;SDS011;28673;44.412;11.918;2024-03-23T02:03:57;21.08;;;11.77;;
43048;SDS011;28673;44.412;11.918;2024-03-23T02:06:25;16.60;;;10.43;;
43048;SDS011;28673;44.412;11.918;2024-03-23T02:08:51;25.35;;;12.23;;
43048;SDS011;28673;44.412;11.918;2024-03-23T02:11:18;18.80;;;11.02;;
43048;SDS011;28673;44.412;11.918;2024-03-23T02:13:44;19.67;;;11.70;;
43048;SDS011;28673;44.412;11.918;2024-03-23T02:16:09;18.25;;;10.88;;
43048;SDS011;28673;44.412;11.918;2024-03-23T02:18:35;18.73;;;11.48;;
43048;SDS011;28673;44.412;11.918;2024-03-23T02:21:02;18.55;;;10.90;;
43048;SDS011;28673;44.412;11.918;2024-03-23T02:23:28;23.13;;;12.48;;
43048;SDS011;28673;44.412;11.918;2024-03-23T02:25:56;20.00;;;11.40;;
43048;SDS011;28673;44.412;11.918;2024-03-23T02:28:22;16.80;;;11.25;;
43048;SDS011;28673;44.412;11.918;2024-03-23T02:30:48;19.80;;;11.13;;
43048;SDS011;28673;44.412;11.918;2024-03-23T02:33:15;20.65;;;11.60;;
43048;SDS011;28673;44.412;11.918;2024-03-23T02:35:41;21.38;;;12.05;;
43048;SDS011;28673;44.412;11.918;2024-03-23T02:38:08;19.65;;;12.35;;
43048;SDS011;28673;44.412;11.918;2024-03-23T02:40:34;22.08;;;12.15;;
43048;SDS011;28673;44.412;11.918;2024-03-23T02:43:02;19.52;;;11.20;;
43048;SDS011;28673;44.412;11.918;2024-03-23T02:45:28;24.23;;;12.32;;
43048;SDS011;28673;44.412;11.918;2024-03-23T02:47:54;19.15;;;11.52;;
43048;SDS011;28673;44.412;11.918;2024-03-23T02:50:20;19.25;;;11.65;;
43048;SDS011;28673;44.412;11.918;2024-03-23T02:52:46;18.63;;;12.20;;
43048;SDS011;28673;44.412;11.918;2024-03-23T02:55:13;17.00;;;10.32;;
43048;SDS011;28673;44.412;11.918;2024-03-23T02:57:39;21.90;;;11.70;;
43048;SDS011;28673;44.412;11.918;2024-03-23T03:00:05;16.92;;;11.05;;
43048;SDS011;28673;44.412;11.918;2024-03-23T03:02:32;18.50;;;11.25;;
43048;SDS011;28673;44.412;11.918;2024-03-23T03:04:58;16.55;;;10.27;;
43048;SDS011;28673;44.412;11.918;2024-03-23T03:07:24;17.73;;;10.98;;
43048;SDS011;28673;44.412;11.918;2024-03-23T03:09:50;18.02;;;11.07;;
43048;SDS011;28673;44.412;11.918;2024-03-23T03:12:16;17.33;;;11.10;;
43048;SDS011;28673;44.412;11.918;2024-03-23T03:14:42;18.73;;;10.35;;
43048;SDS011;28673;44.412;11.918;2024-03-23T03:17:08;16.30;;;10.52;;
43048;SDS011;28673;44.412;11.918;2024-03-23T03:19:34;18.58;;;10.55;;
43048;SDS011;28673;44.412;11.918;2024-03-23T03:21:59;17.23;;;10.77;;
43048;SDS011;28673;44.412;11.918;2024-03-23T03:24:25;24.05;;;11.43;;
43048;SDS011;28673;44.412;11.918;2024-03-23T03:26:51;20.95;;;10.82;;
43048;SDS011;28673;44.412;11.918;2024-03-23T03:29:17;21.23;;;11.90;;
43048;SDS011;28673;44.412;11.918;2024-03-23T03:31:43;18.92;;;9.88;;
43048;SDS011;28673;44.412;11.918;2024-03-23T03:34:09;17.50;;;10.13;;
43048;SDS011;28673;44.412;11.918;2024-03-23T03:36:35;15.48;;;10.07;;
43048;SDS011;28673;44.412;11.918;2024-03-23T03:39:00;16.27;;;9.73;;
43048;SDS011;28673;44.412;11.918;2024-03-23T03:41:28;16.67;;;10.85;;
43048;SDS011;28673;44.412;11.918;2024-03-23T03:43:54;17.40;;;10.65;;
43048;SDS011;28673;44.412;11.918;2024-03-23T03:46:20;15.25;;;10.32;;
43048;SDS011;28673;44.412;11.918;2024-03-23T03:48:46;19.33;;;10.35;;
43048;SDS011;28673;44.412;11.918;2024-03-23T03:51:13;18.33;;;10.85;;
43048;SDS011;28673;44.412;11.918;2024-03-23T03:53:39;16.38;;;11.32;;
43048;SDS011;28673;44.412;11.918;2024-03-23T03:56:05;16.92;;;10.15;;
43048;SDS011;28673;44.412;11.918;2024-03-23T03:58:32;17.60;;;11.20;;
43048;SDS011;28673;44.412;11.918;2024-03-23T04:00:57;16.92;;;9.88;;
43048;SDS011;28673;44.412;11.918;2024-03-23T04:03:23;16.83;;;11.07;;
43048;SDS011;28673;44.412;11.918;2024-03-23T04:05:50;14.40;;;9.98;;
43048;SDS011;28673;44.412;11.918;2024-03-23T04:08:17;17.20;;;9.52;;
43048;SDS011;28673;44.412;11.918;2024-03-23T04:10:44;22.08;;;10.63;;
43048;SDS011;28673;44.412;11.918;2024-03-23T04:13:09;17.23;;;10.27;;
43048;SDS011;28673;44.412;11.918;2024-03-23T04:15:35;21.65;;;10.15;;
43048;SDS011;28673;44.412;11.918;2024-03-23T04:18:01;16.08;;;8.93;;
43048;SDS011;28673;44.412;11.918;2024-03-23T04:20:27;15.35;;;9.95;;
43048;SDS011;28673;44.412;11.918;2024-03-23T04:22:53;18.38;;;9.68;;
43048;SDS011;28673;44.412;11.918;2024-03-23T04:25:19;16.63;;;8.93;;
43048;SDS011;28673;44.412;11.918;2024-03-23T04:27:45;17.58;;;9.45;;
43048;SDS011;28673;44.412;11.918;2024-03-23T04:30:11;15.90;;;9.50;;
43048;SDS011;28673;44.412;11.918;2024-03-23T04:32:40;14.02;;;9.05;;
43048;SDS011;28673;44.412;11.918;2024-03-23T04:35:07;16.60;;;9.23;;
43048;SDS011;28673;44.412;11.918;2024-03-23T04:37:36;16.13;;;9.38;;
43048;SDS011;28673;44.412;11.918;2024-03-23T04:40:02;15.93;;;10.23;;
43048;SDS011;28673;44.412;11.918;2024-03-23T04:42:29;14.38;;;8.63;;
43048;SDS011;28673;44.412;11.918;2024-03-23T04:44:55;16.38;;;9.27;;
43048;SDS011;28673;44.412;11.918;2024-03-23T04:47:21;15.43;;;9.15;;
43048;SDS011;28673;44.412;11.918;2024-03-23T04:49:47;14.20;;;9.18;;
43048;SDS011;28673;44.412;11.918;2024-03-23T04:52:15;16.95;;;8.88;;
43048;SDS011;28673;44.412;11.918;2024-03-23T04:54:41;16.15;;;9.07;;
43048;SDS011;28673;44.412;11.918;2024-03-23T04:57:07;15.98;;;8.55;;
43048;SDS011;28673;44.412;11.918;2024-03-23T04:59:33;17.25;;;8.98;;
43048;SDS011;28673;44.412;11.918;2024-03-23T05:01:59;17.77;;;10.10;;
43048;SDS011;28673;44.412;11.918;2024-03-23T05:04:25;12.40;;;7.80;;
43048;SDS011;28673;44.412;11.918;2024-03-23T05:06:51;16.35;;;9.30;;
43048;SDS011;28673;44.412;11.918;2024-03-23T05:09:17;17.38;;;9.00;;
43048;SDS011;28673;44.412;11.918;2024-03-23T05:11:43;15.00;;;8.65;;
43048;SDS011;28673;44.412;11.918;2024-03-23T05:14:10;15.45;;;8.82;;
43048;SDS011;28673;44.412;11.918;2024-03-23T05:16:38;11.82;;;8.02;;
43048;SDS011;28673;44.412;11.918;2024-03-23T05:19:07;13.68;;;8.23;;
43048;SDS011;28673;44.412;11.918;2024-03-23T05:21:32;14.38;;;8.57;;
43048;SDS011;28673;44.412;11.918;2024-03-23T05:23:58;14.98;;;8.70;;
43048;SDS011;28673;44.412;11.918;2024-03-23T05:26:24;14.13;;;7.93;;
43048;SDS011;28673;44.412;11.918;2024-03-23T05:28:50;18.35;;;8.93;;
43048;SDS011;28673;44.412;11.918;2024-03-23T05:31:22;15.10;;;8.55;;
43048;SDS011;28673;44.412;11.918;2024-03-23T05:33:49;15.68;;;8.70;;
43048;SDS011;28673;44.412;11.918;2024-03-23T05:36:15;16.65;;;9.05;;
43048;SDS011;28673;44.412;11.918;2024-03-23T05:38:41;15.30;;;9.48;;
43048;SDS011;28673;44.412;11.918;2024-03-23T05:41:06;17.90;;;8.60;;
43048;SDS011;28673;44.412;11.918;2024-03-23T05:43:32;15.70;;;9.15;;
43048;SDS011;28673;44.412;11.918;2024-03-23T05:45:59;12.27;;;8.27;;
43048;SDS011;28673;44.412;11.918;2024-03-23T05:48:25;12.32;;;8.65;;
43048;SDS011;28673;44.412;11.918;2024-03-23T05:50:51;17.70;;;10.35;;
43048;SDS011;28673;44.412;11.918;2024-03-23T05:53:18;18.23;;;9.88;;
43048;SDS011;28673;44.412;11.918;2024-03-23T05:55:47;19.30;;;10.80;;
43048;SDS011;28673;44.412;11.918;2024-03-23T05:58:17;20.15;;;10.20;;
43048;SDS011;28673;44.412;11.918;2024-03-23T06:00:44;18.15;;;10.15;;
43048;SDS011;28673;44.412;11.918;2024-03-23T06:03:09;21.13;;;11.45;;
43048;SDS011;28673;44.412;11.918;2024-03-23T06:05:39;17.15;;;9.80;;
43048;SDS011;28673;44.412;11.918;2024-03-23T06:08:05;21.98;;;10.90;;
43048;SDS011;28673;44.412;11.918;2024-03-23T06:10:34;19.92;;;10.63;;
43048;SDS011;28673;44.412;11.918;2024-03-23T06:13:00;20.92;;;10.25;;
43048;SDS011;28673;44.412;11.918;2024-03-23T06:15:26;15.88;;;10.27;;
43048;SDS011;28673;44.412;11.918;2024-03-23T06:17:52;20.00;;;10.35;;
43048;SDS011;28673;44.412;11.918;2024-03-23T06:20:18;21.85;;;10.38;;
43048;SDS011;28673;44.412;11.918;2024-03-23T06:22:44;18.70;;;11.35;;
43048;SDS011;28673;44.412;11.918;2024-03-23T06:25:09;17.63;;;11.52;;
43048;SDS011;28673;44.412;11.918;2024-03-23T06:27:37;20.33;;;11.55;;
43048;SDS011;28673;44.412;11.918;2024-03-23T06:30:04;17.52;;;11.52;;
43048;SDS011;28673;44.412;11.918;2024-03-23T06:32:32;17.88;;;10.63;;
43048;SDS011;28673;44.412;11.918;2024-03-23T06:34:57;20.60;;;10.60;;
43048;SDS011;28673;44.412;11.918;2024-03-23T06:37:23;18.17;;;11.13;;
43048;SDS011;28673;44.412;11.918;2024-03-23T06:39:49;19.65;;;12.40;;
43048;SDS011;28673;44.412;11.918;2024-03-23T06:42:15;21.17;;;11.15;;
43048;SDS011;28673;44.412;11.918;2024-03-23T06:44:40;20.38;;;12.18;;
43048;SDS011;28673;44.412;11.918;2024-03-23T06:47:06;24.40;;;13.90;;
43048;SDS011;28673;44.412;11.918;2024-03-23T06:49:32;26.88;;;14.05;;
43048;SDS011;28673;44.412;11.918;2024-03-23T06:51:58;23.70;;;14.48;;
43048;SDS011;28673;44.412;11.918;2024-03-23T06:54:24;25.55;;;14.10;;
43048;SDS011;28673;44.412;11.918;2024-03-23T06:56:50;28.15;;;13.93;;
43048;SDS011;28673;44.412;11.918;2024-03-23T06:59:16;20.17;;;13.15;;
43048;SDS011;28673;44.412;11.918;2024-03-23T07:01:42;19.50;;;12.15;;
43048;SDS011;28673;44.412;11.918;2024-03-23T07:04:08;20.35;;;12.35;;
43048;SDS011;28673;44.412;11.918;2024-03-23T07:06:33;19.20;;;11.27;;
43048;SDS011;28673;44.412;11.918;2024-03-23T07:08:59;19.45;;;13.68;;
43048;SDS011;28673;44.412;11.918;2024-03-23T07:11:25;22.17;;;13.05;;
43048;SDS011;28673;44.412;11.918;2024-03-23T07:13:52;19.55;;;13.20;;
43048;SDS011;28673;44.412;11.918;2024-03-23T07:16:21;26.55;;;13.32;;
43048;SDS011;28673;44.412;11.918;2024-03-23T07:18:49;33.75;;;13.07;;
43048;SDS011;28673;44.412;11.918;2024-03-23T07:21:15;22.58;;;13.75;;
43048;SDS011;28673;44.412;11.918;2024-03-23T07:23:42;27.80;;;13.70;;
43048;SDS011;28673;44.412;11.918;2024-03-23T07:26:11;30.55;;;14.75;;
43048;SDS011;28673;44.412;11.918;2024-03-23T07:28:37;30.92;;;16.42;;
43048;SDS011;28673;44.412;11.918;2024-03-23T07:31:04;29.92;;;15.60;;
43048;SDS011;28673;44.412;11.918;2024-03-23T07:33:30;26.48;;;15.38;;
43048;SDS011;28673;44.412;11.918;2024-03-23T07:35:56;29.42;;;15.48;;
43048;SDS011;28673;44.412;11.918;2024-03-23T07:38:22;28.50;;;15.45;;
43048;SDS011;28673;44.412;11.918;2024-03-23T07:40:48;23.75;;;14.68;;
43048;SDS011;28673;44.412;11.918;2024-03-23T07:43:21;29.95;;;14.63;;
43048;SDS011;28673;44.412;11.918;2024-03-23T07:45:53;23.60;;;13.65;;
43048;SDS011;28673;44.412;11.918;2024-03-23T07:48:20;31.00;;;14.02;;
43048;SDS011;28673;44.412;11.918;2024-03-23T07:50:56;25.10;;;14.13;;
43048;SDS011;28673;44.412;11.918;2024-03-23T07:53:25;25.63;;;13.52;;
43048;SDS011;28673;44.412;11.918;2024-03-23T07:55:54;34.40;;;14.68;;
43048;SDS011;28673;44.412;11.918;2024-03-23T07:58:24;27.65;;;14.63;;
43048;SDS011;28673;44.412;11.918;2024-03-23T08:00:52;28.67;;;14.43;;
43048;SDS011;28673;44.412;11.918;2024-03-23T08:03:20;19.00;;;11.48;;
43048;SDS011;28673;44.412;11.918;2024-03-23T08:05:46;19.63;;;11.60;;
43048;SDS011;28673;44.412;11.918;2024-03-23T08:08:13;16.48;;;8.98;;
43048;SDS011;28673;44.412;11.918;2024-03-23T08:10:51;19.63;;;10.32;;
43048;SDS011;28673;44.412;11.918;2024-03-23T08:15:46;14.40;;;8.25;;
43048;SDS011;28673;44.412;11.918;2024-03-23T08:18:12;10.50;;;6.30;;
43048;SDS011;28673;44.412;11.918;2024-03-23T08:20:40;9.32;;;5.93;;
43048;SDS011;28673;44.412;11.918;2024-03-23T08:23:06;10.25;;;5.75;;
43048;SDS011;28673;44.412;11.918;2024-03-23T08:25:32;8.55;;;4.78;;
43048;SDS011;28673;44.412;11.918;2024-03-23T08:27:59;6.47;;;4.78;;
43048;SDS011;28673;44.412;11.918;2024-03-23T08:30:25;8.45;;;4.97;;
43048;SDS011;28673;44.412;11.918;2024-03-23T08:32:51;8.63;;;4.53;;
43048;SDS011;28673;44.412;11.918;2024-03-23T08:35:17;7.43;;;5.15;;
43048;SDS011;28673;44.412;11.918;2024-03-23T08:37:43;12.07;;;4.78;;
43048;SDS011;28673;44.412;11.918;2024-03-23T08:40:09;7.53;;;5.25;;
43048;SDS011;28673;44.412;11.918;2024-03-23T08:42:35;7.93;;;4.60;;
43048;SDS011;28673;44.412;11.918;2024-03-23T08:45:01;7.22;;;4.95;;
43048;SDS011;28673;44.412;11.918;2024-03-23T08:47:28;7.15;;;4.75;;
43048;SDS011;28673;44.412;11.918;2024-03-23T08:49:53;9.07;;;4.50;;
43048;SDS011;28673;44.412;11.918;2024-03-23T08:52:20;7.05;;;4.60;;
43048;SDS011;28673;44.412;11.918;2024-03-23T08:54:48;5.70;;;4.15;;
43048;SDS011;28673;44.412;11.918;2024-03-23T08:57:14;8.02;;;3.85;;
43048;SDS011;28673;44.412;11.918;2024-03-23T08:59:39;6.13;;;4.07;;
43048;SDS011;28673;44.412;11.918;2024-03-23T09:02:05;5.65;;;3.78;;
43048;SDS011;28673;44.412;11.918;2024-03-23T09:04:31;6.00;;;3.60;;
43048;SDS011;28673;44.412;11.918;2024-03-23T09:06:57;10.57;;;5.18;;
43048;SDS011;28673;44.412;11.918;2024-03-23T09:09:25;7.40;;;3.75;;
43048;SDS011;28673;44.412;11.918;2024-03-23T09:11:51;5.85;;;3.45;;
43048;SDS011;28673;44.412;11.918;2024-03-23T09:14:16;5.55;;;3.42;;
43048;SDS011;28673;44.412;11.918;2024-03-23T09:16:42;4.80;;;3.72;;
43048;SDS011;28673;44.412;11.918;2024-03-23T09:19:08;6.25;;;4.00;;
43048;SDS011;28673;44.412;11.918;2024-03-23T09:21:34;5.22;;;3.85;;
43048;SDS011;28673;44.412;11.918;2024-03-23T09:23:59;7.10;;;3.78;;
43048;SDS011;28673;44.412;11.918;2024-03-23T09:26:28;8.77;;;4.35;;
43048;SDS011;28673;44.412;11.918;2024-03-23T09:28:54;5.15;;;3.60;;
43048;SDS011;28673;44.412;11.918;2024-03-23T09:31:20;8.02;;;4.40;;
43048;SDS011;28673;44.412;11.918;2024-03-23T09:33:47;6.88;;;4.65;;
43048;SDS011;28673;44.412;11.918;2024-03-23T09:36:16;5.60;;;4.05;;
43048;SDS011;28673;44.412;11.918;2024-03-23T09:38:41;6.40;;;4.05;;
43048;SDS011;28673;44.412;11.918;2024-03-23T09:41:07;6.78;;;4.15;;
43048;SDS011;28673;44.412;11.918;2024-03-23T09:43:37;4.45;;;4.00;;
43048;SDS011;28673;44.412;11.918;2024-03-23T09:46:03;7.75;;;3.80;;
43048;SDS011;28673;44.412;11.918;2024-03-23T09:48:34;4.63;;;3.90;;
43048;SDS011;28673;44.412;11.918;2024-03-23T09:51:01;5.95;;;3.58;;
43048;SDS011;28673;44.412;11.918;2024-03-23T09:53:37;4.60;;;3.00;;
43048;SDS011;28673;44.412;11.918;2024-03-23T09:56:06;4.55;;;3.65;;
43048;SDS011;28673;44.412;11.918;2024-03-23T09:58:33;5.93;;;3.75;;
43048;SDS011;28673;44.412;11.918;2024-03-23T10:01:02;8.00;;;3.85;;
43048;SDS011;28673;44.412;11.918;2024-03-23T10:03:28;5.10;;;3.47;;
43048;SDS011;28673;44.412;11.918;2024-03-23T10:06:03;6.40;;;3.55;;
43048;SDS011;28673;44.412;11.918;2024-03-23T10:08:30;29.23;;;7.05;;
43048;SDS011;28673;44.412;11.918;2024-03-23T10:10:58;6.95;;;3.05;;
43048;SDS011;28673;44.412;11.918;2024-03-23T10:13:41;8.05;;;3.83;;
43048;SDS011;28673;44.412;11.918;2024-03-23T10:16:08;4.35;;;3.00;;
43048;SDS011;28673;44.412;11.918;2024-03-23T10:18:50;6.15;;;3.10;;
43048;SDS011;28673;44.412;11.918;2024-03-23T10:26:34;4.95;;;3.13;;
43048;SDS011;28673;44.412;11.918;2024-03-23T10:38:18;3.92;;;2.47;;
43048;SDS011;28673;44.412;11.918;2024-03-23T11:57:09;3.20;;;2.25;;
43048;SDS011;28673;44.412;11.918;2024-03-23T12:02:19;3.97;;;2.00;;
43048;SDS011;28673;44.412;11.918;2024-03-23T12:04:47;4.65;;;2.17;;
43048;SDS011;28673;44.412;11.918;2024-03-23T12:07:14;4.53;;;2.45;;
43048;SDS011;28673;44.412;11.918;2024-03-23T12:19:08;4.47;;;2.65;;
43048;SDS011;28673;44.412;11.918;2024-03-23T12:45:48;3.58;;;2.22;;
43048;SDS011;28673;44.412;11.918;2024-03-23T12:48:29;5.60;;;2.78;;
43048;SDS011;28673;44.412;11.918;2024-03-23T12:54:38;5.90;;;3.00;;
43048;SDS011;28673;44.412;11.918;2024-03-23T12:57:14;6.43;;;3.03;;
43048;SDS011;28673;44.412;11.918;2024-03-23T12:59:51;6.05;;;2.55;;
43048;SDS011;28673;44.412;11.918;2024-03-23T13:02:20;4.55;;;2.95;;
43048;SDS011;28673;44.412;11.918;2024-03-23T13:05:06;8.05;;;3.17;;
43048;SDS011;28673;44.412;11.918;2024-03-23T13:07:49;5.65;;;3.10;;
43048;SDS011;28673;44.412;11.918;2024-03-23T13:10:18;3.97;;;2.60;;
43048;SDS011;28673;44.412;11.918;2024-03-23T13:12:46;6.22;;;2.92;;
43048;SDS011;28673;44.412;11.918;2024-03-23T13:15:14;4.10;;;3.17;;
43048;SDS011;28673;44.412;11.918;2024-03-23T13:17:42;4.57;;;3.42;;
43048;SDS011;28673;44.412;11.918;2024-03-23T13:20:10;5.93;;;2.72;;
43048;SDS011;28673;44.412;11.918;2024-03-23T13:22:40;8.88;;;2.50;;
43048;SDS011;28673;44.412;11.918;2024-03-23T13:39:33;3.53;;;2.53;;
43048;SDS011;28673;44.412;11.918;2024-03-23T13:52:25;6.38;;;3.50;;
43048;SDS011;28673;44.412;11.918;2024-03-23T13:54:51;9.45;;;3.03;;
43048;SDS011;28673;44.412;11.918;2024-03-23T13:57:20;7.55;;;3.42;;
43048;SDS011;28673;44.412;11.918;2024-03-23T14:54:54;4.20;;;2.28;;
43048;SDS011;28673;44.412;11.918;2024-03-23T14:57:24;8.48;;;3.75;;
43048;SDS011;28673;44.412;11.918;2024-03-23T14:59:54;6.18;;;2.85;;
43048;SDS011;28673;44.412;11.918;2024-03-23T15:05:56;8.02;;;2.55;;
43048;SDS011;28673;44.412;11.918;2024-03-23T15:08:23;4.55;;;2.28;;
43048;SDS011;28673;44.412;11.918;2024-03-23T15:21:48;7.57;;;3.90;;
43048;SDS011;28673;44.412;11.918;2024-03-23T15:28:08;12.65;;;4.82;;
43048;SDS011;28673;44.412;11.918;2024-03-23T16:01:06;4.03;;;2.17;;
43048;SDS011;28673;44.412;11.918;2024-03-23T16:03:45;9.48;;;3.20;;
43048;SDS011;28673;44.412;11.918;2024-03-23T16:06:25;5.47;;;3.08;;
43048;SDS011;28673;44.412;11.918;2024-03-23T16:09:06;4.35;;;2.38;;
43048;SDS011;28673;44.412;11.918;2024-03-23T16:26:41;6.07;;;3.00;;
43048;SDS011;28673;44.412;11.918;2024-03-23T16:30:13;12.27;;;3.58;;
43048;SDS011;28673;44.412;11.918;2024-03-23T16:34:18;13.60;;;4.22;;
43048;SDS011;28673;44.412;11.918;2024-03-23T16:36:39;14.98;;;2.92;;
43048;SDS011;28673;44.412;11.918;2024-03-23T16:42:57;10.55;;;3.25;;
43048;SDS011;28673;44.412;11.918;2024-03-23T18:08:57;8.90;;;3.00;;
43048;SDS011;28673;44.412;11.918;2024-03-23T19:18:55;7.68;;;5.05;;
43048;SDS011;28673;44.412;11.918;2024-03-23T19:22:30;5.68;;;3.65;;
43048;SDS011;28673;44.412;11.918;2024-03-23T19:28:31;11.20;;;4.15;;
43048;SDS011;28673;44.412;11.918;2024-03-23T19:31:26;11.43;;;4.75;;
43048;SDS011;28673;44.412;11.918;2024-03-23T20:24:45;6.32;;;3.50;;
43048;SDS011;28673;44.412;11.918;2024-03-23T22:34:19;6.32;;;3.10;;
43048;SDS011;28673;44.412;11.918;2024-03-23T22:48:59;6.40;;;3.15;;
43048;SDS011;28673;44.412;11.918;2024-03-23T22:56:26;7.78;;;3.45;;
43048;SDS011;28673;44.412;11.918;2024-03-23T23:51:54;5.15;;;3.30;;
